Time;durP1;ratioP1;P1;durP2;ratioP2;P2;SDS_P1;SDS_P2;PMS_P1;PMS_P2;Temp;Humidity;BMP_temperature;BMP_pressure;BME280_temperature;BME280_humidity;BME280_pressure;Samples;Min_cycle;Max_cycle;Signal;HPM_P1;HPM_P2
2022/08/20 00:01:17;;;;;;;1.63;1.53;;;19.70;99.90;;;;;;489583;243;28667;-70
2022/08/20 00:03:18;;;;;;;1.60;1.50;;;19.70;99.90;;;;;;489744;243;29301;-71
2022/08/20 00:05:20;;;;;;;1.00;1.00;;;19.70;99.90;;;;;;489740;243;29244;-70
2022/08/20 00:07:21;;;;;;;1.43;1.43;;;19.70;99.90;;;;;;489610;243;29267;-70
2022/08/20 00:09:22;;;;;;;1.40;1.30;;;19.60;99.90;;;;;;489733;243;28812;-73
2022/08/20 00:11:23;;;;;;;1.20;1.20;;;19.60;99.90;;;;;;489709;243;28668;-70
2022/08/20 00:13:25;;;;;;;1.37;1.37;;;19.60;99.90;;;;;;489739;243;28797;-70
2022/08/20 00:15:27;;;;;;;1.20;1.20;;;19.60;99.90;;;;;;489721;243;28661;-69
2022/08/20 00:17:34;;;;;;;1.40;1.40;;;19.50;99.90;;;;;;489589;243;28766;-70
2022/08/20 00:19:29;;;;;;;1.30;1.30;;;19.50;99.90;;;;;;489202;243;28727;-71
2022/08/20 00:21:30;;;;;;;1.50;1.40;;;19.50;99.90;;;;;;489665;243;28686;-70
2022/08/20 00:23:31;;;;;;;1.10;1.10;;;19.50;99.90;;;;;;489754;243;28701;-70
2022/08/20 00:25:32;;;;;;;1.17;1.10;;;19.50;99.90;;;;;;489746;243;29122;-71
2022/08/20 00:27:34;;;;;;;1.30;1.20;;;19.50;99.90;;;;;;489620;243;29192;-70
2022/08/20 00:29:35;;;;;;;1.10;1.10;;;19.50;99.90;;;;;;489332;243;29185;-72
2022/08/20 00:31:36;;;;;;;1.67;1.57;;;19.50;99.90;;;;;;488814;243;29127;-69
2022/08/20 00:33:37;;;;;;;1.20;1.20;;;19.40;99.90;;;;;;489773;243;28750;-71
2022/08/20 00:35:39;;;;;;;1.30;1.30;;;19.40;99.90;;;;;;489733;243;28749;-69
2022/08/20 00:37:40;;;;;;;1.37;1.30;;;19.40;99.90;;;;;;489702;243;28747;-69
2022/08/20 00:39:41;;;;;;;1.50;1.40;;;19.30;99.90;;;;;;489788;243;28781;-73
2022/08/20 00:41:42;;;;;;;1.47;1.40;;;19.30;99.90;;;;;;489737;243;28690;-70
2022/08/20 00:43:44;;;;;;;1.60;1.50;;;19.30;99.90;;;;;;489757;243;28717;-70
2022/08/20 00:45:45;;;;;;;1.50;1.30;;;19.30;99.90;;;;;;489748;243;28726;-70
2022/08/20 00:47:46;;;;;;;1.40;1.30;;;19.30;99.90;;;;;;489659;243;28710;-69
2022/08/20 00:49:47;;;;;;;1.50;1.40;;;19.30;99.90;;;;;;489730;243;29192;-72
2022/08/20 00:51:49;;;;;;;1.27;1.27;;;19.20;99.90;;;;;;489708;243;29207;-72
2022/08/20 00:53:50;;;;;;;1.23;1.23;;;19.20;99.90;;;;;;489766;243;29312;-70
2022/08/20 00:55:51;;;;;;;1.37;1.37;;;19.20;99.90;;;;;;489719;243;29236;-70
2022/08/20 00:57:53;;;;;;;1.53;1.43;;;19.10;99.90;;;;;;489601;243;28801;-70
2022/08/20 00:59:54;;;;;;;1.47;1.47;;;19.10;99.90;;;;;;489611;243;28715;-72
2022/08/20 01:01:56;;;;;;;1.37;1.37;;;19.00;99.90;;;;;;489665;243;28796;-69
2022/08/20 01:03:57;;;;;;;1.30;1.30;;;19.00;99.90;;;;;;489682;242;28764;-69
2022/08/20 01:05:57;;;;;;;1.63;1.53;;;19.00;99.90;;;;;;489689;243;28686;-69
2022/08/20 01:07:59;;;;;;;1.30;1.30;;;19.10;99.90;;;;;;489629;243;28680;-70
2022/08/20 01:10:00;;;;;;;1.50;1.40;;;19.10;99.90;;;;;;489544;243;28772;-70
2022/08/20 01:12:01;;;;;;;1.60;1.50;;;19.00;99.90;;;;;;489638;243;28660;-69
2022/08/20 01:14:18;;;;;;;1.37;1.37;;;19.00;99.90;;;;;;489682;243;28726;-70
2022/08/20 01:16:04;;;;;;;1.40;1.40;;;19.00;99.90;;;;;;488445;243;30076;-69
2022/08/20 01:18:05;;;;;;;1.50;1.50;;;19.00;99.90;;;;;;489646;243;29208;-69
2022/08/20 01:20:06;;;;;;;1.53;1.33;;;19.00;99.90;;;;;;489699;243;29208;-72
2022/08/20 01:24:27;;;;;;;1.17;1.17;;;18.90;99.90;;;;;;489749;243;29149;-70
2022/08/20 01:26:28;;;;;;;1.70;1.60;;;18.90;99.90;;;;;;489652;243;28715;-71
2022/08/20 01:28:29;;;;;;;1.27;1.27;;;18.80;99.90;;;;;;489721;243;28658;-70
2022/08/20 01:30:31;;;;;;;1.93;1.50;;;18.70;99.90;;;;;;489727;243;28710;-71
2022/08/20 01:32:32;;;;;;;1.40;1.40;;;18.70;99.90;;;;;;489720;243;28693;-69
2022/08/20 01:34:33;;;;;;;1.60;1.50;;;18.70;99.90;;;;;;489751;243;28659;-70
2022/08/20 01:36:34;;;;;;;1.50;1.40;;;18.70;99.90;;;;;;489634;243;28724;-70
2022/08/20 01:38:36;;;;;;;1.60;1.50;;;18.80;99.90;;;;;;489707;243;28735;-70
2022/08/20 01:40:37;;;;;;;1.80;1.70;;;18.80;99.90;;;;;;489735;243;28724;-69
2022/08/20 01:42:38;;;;;;;1.73;1.63;;;18.80;99.90;;;;;;489692;243;28772;-70
2022/08/20 01:44:41;;;;;;;1.97;1.87;;;18.80;99.90;;;;;;489740;243;29150;-70
2022/08/20 01:46:41;;;;;;;1.87;1.77;;;18.80;99.90;;;;;;489611;243;29275;-71
2022/08/20 01:48:42;;;;;;;1.37;1.37;;;18.80;99.90;;;;;;489708;243;29136;-69
2022/08/20 01:50:43;;;;;;;1.53;1.47;;;18.80;99.90;;;;;;489728;243;28726;-69
2022/08/20 01:52:45;;;;;;;1.60;1.50;;;18.80;99.90;;;;;;489726;243;28785;-73
2022/08/20 01:54:46;;;;;;;1.90;1.80;;;18.80;99.90;;;;;;489729;243;28711;-69
2022/08/20 01:56:47;;;;;;;1.30;1.30;;;18.80;99.90;;;;;;489664;242;28827;-70
2022/08/20 01:58:49;;;;;;;1.80;1.70;;;18.80;99.90;;;;;;489665;243;28674;-70
2022/08/20 02:00:50;;;;;;;1.33;1.33;;;18.90;99.90;;;;;;489702;243;28795;-69
2022/08/20 02:02:51;;;;;;;1.70;1.60;;;18.80;99.90;;;;;;489720;243;29148;-74
2022/08/20 02:04:52;;;;;;;1.50;1.40;;;18.80;99.90;;;;;;489737;243;28670;-70
2022/08/20 02:06:54;;;;;;;1.83;1.73;;;18.80;99.90;;;;;;489653;243;28722;-71
2022/08/20 02:08:55;;;;;;;1.70;1.60;;;18.80;99.90;;;;;;489700;243;29129;-70
2022/08/20 02:10:56;;;;;;;2.30;1.63;;;18.80;99.90;;;;;;489776;242;29198;-70
2022/08/20 02:12:57;;;;;;;1.77;1.67;;;18.80;99.90;;;;;;489788;243;29271;-72
2022/08/20 02:14:59;;;;;;;1.73;1.63;;;18.80;99.90;;;;;;489760;243;28771;-70
2022/08/20 02:17:00;;;;;;;1.47;1.40;;;18.70;99.90;;;;;;489701;243;28720;-72
2022/08/20 02:19:01;;;;;;;1.90;1.80;;;18.70;99.90;;;;;;489737;243;28662;-70
2022/08/20 02:21:02;;;;;;;1.70;1.60;;;18.70;99.90;;;;;;489773;242;28796;-70
2022/08/20 02:23:03;;;;;;;1.47;1.37;;;18.70;99.90;;;;;;489758;243;29065;-70
2022/08/20 02:25:05;;;;;;;1.70;1.60;;;18.70;99.90;;;;;;489751;243;28682;-70
2022/08/20 02:27:06;;;;;;;1.60;1.50;;;18.70;99.90;;;;;;489661;243;28799;-70
2022/08/20 02:29:07;;;;;;;1.57;1.47;;;18.70;99.90;;;;;;489707;243;28749;-69
2022/08/20 02:31:08;;;;;;;1.70;1.60;;;18.70;99.90;;;;;;489710;243;28710;-70
2022/08/20 02:33:10;;;;;;;1.80;1.70;;;18.80;99.90;;;;;;489704;243;29343;-71
2022/08/20 02:35:12;;;;;;;1.77;1.67;;;18.70;99.90;;;;;;489580;243;29262;-70
2022/08/20 02:37:17;;;;;;;1.70;1.60;;;18.80;99.90;;;;;;489627;243;29176;-70
2022/08/20 02:39:16;;;;;;;1.70;1.60;;;18.80;99.90;;;;;;489588;243;29165;-70
2022/08/20 02:41:20;;;;;;;1.50;1.40;;;18.80;99.90;;;;;;489738;243;29196;-69
2022/08/20 02:43:20;;;;;;;2.00;1.73;;;18.70;99.90;;;;;;489568;243;29136;-70
2022/08/20 02:45:21;;;;;;;1.60;1.50;;;18.70;99.90;;;;;;489673;243;28734;-73
2022/08/20 02:47:21;;;;;;;1.97;1.87;;;18.70;99.90;;;;;;489636;243;28783;-70
2022/08/20 02:49:22;;;;;;;1.73;1.43;;;18.60;99.90;;;;;;489714;243;28705;-71
2022/08/20 02:51:24;;;;;;;1.53;1.43;;;18.60;99.90;;;;;;489762;243;28684;-69
2022/08/20 02:53:25;;;;;;;1.50;1.40;;;18.50;99.90;;;;;;489740;242;28723;-70
2022/08/20 02:55:26;;;;;;;1.80;1.70;;;18.50;99.90;;;;;;489757;243;28726;-72
2022/08/20 02:57:27;;;;;;;1.87;1.77;;;18.40;99.90;;;;;;489700;243;28779;-69
2022/08/20 02:59:29;;;;;;;1.57;1.47;;;18.40;99.90;;;;;;489720;243;29194;-71
2022/08/20 03:01:30;;;;;;;2.00;1.90;;;18.40;99.90;;;;;;489746;243;29232;-69
2022/08/20 03:03:31;;;;;;;1.80;1.70;;;18.40;99.90;;;;;;489753;243;29292;-70
2022/08/20 03:05:32;;;;;;;1.60;1.50;;;18.50;99.90;;;;;;489731;243;29283;-71
2022/08/20 03:07:34;;;;;;;1.57;1.50;;;18.50;99.90;;;;;;489699;243;28688;-69
2022/08/20 03:09:35;;;;;;;1.60;1.50;;;18.50;99.90;;;;;;489700;243;28720;-69
2022/08/20 03:11:38;;;;;;;1.53;1.43;;;18.60;99.90;;;;;;489742;243;28715;-69
2022/08/20 03:13:38;;;;;;;1.63;1.57;;;18.50;99.90;;;;;;489650;243;28752;-69
2022/08/20 03:15:39;;;;;;;1.70;1.60;;;18.50;99.90;;;;;;489734;243;28772;-72
2022/08/20 03:17:40;;;;;;;1.80;1.70;;;18.50;99.90;;;;;;489658;243;28678;-69
2022/08/20 03:19:41;;;;;;;2.00;1.80;;;18.50;99.90;;;;;;489705;243;28732;-70
2022/08/20 03:21:42;;;;;;;1.80;1.70;;;18.50;99.90;;;;;;489739;243;28756;-70
2022/08/20 03:23:44;;;;;;;2.60;1.80;;;18.60;99.90;;;;;;489712;243;28815;-70
2022/08/20 03:25:45;;;;;;;1.90;1.80;;;18.60;99.90;;;;;;489739;243;29273;-74
2022/08/20 03:27:46;;;;;;;1.60;1.50;;;18.60;99.90;;;;;;489708;243;29275;-69
2022/08/20 03:29:47;;;;;;;1.80;1.70;;;18.50;99.90;;;;;;489754;243;29191;-71
2022/08/20 03:31:49;;;;;;;2.00;1.90;;;18.60;99.90;;;;;;489748;243;28685;-70
2022/08/20 03:33:50;;;;;;;1.80;1.70;;;18.50;99.90;;;;;;489780;243;28791;-70
2022/08/20 03:35:51;;;;;;;1.80;1.70;;;18.50;99.90;;;;;;489707;243;28708;-73
2022/08/20 03:37:52;;;;;;;2.07;1.97;;;18.50;99.90;;;;;;489691;243;28740;-69
2022/08/20 03:39:54;;;;;;;2.10;2.00;;;18.50;99.90;;;;;;489766;243;28775;-70
2022/08/20 03:41:55;;;;;;;2.20;2.00;;;18.50;99.90;;;;;;489716;243;28680;-69
2022/08/20 03:43:56;;;;;;;1.90;1.80;;;18.50;99.90;;;;;;489774;243;28720;-70
2022/08/20 03:45:57;;;;;;;2.10;1.90;;;18.40;99.90;;;;;;489733;243;29192;-73
2022/08/20 03:48:00;;;;;;;2.30;2.10;;;18.50;99.90;;;;;;489728;242;28680;-70
2022/08/20 03:50:00;;;;;;;2.00;1.90;;;18.40;99.90;;;;;;489706;243;29264;-70
2022/08/20 03:52:02;;;;;;;2.23;2.10;;;18.50;99.90;;;;;;489739;243;29129;-69
2022/08/20 03:54:02;;;;;;;2.40;2.20;;;18.40;99.90;;;;;;489719;243;29218;-70
2022/08/20 03:56:04;;;;;;;1.73;1.63;;;18.40;99.90;;;;;;489650;243;29302;-74
2022/08/20 03:58:05;;;;;;;2.00;1.90;;;18.40;99.90;;;;;;489715;243;28661;-69
2022/08/20 04:00:06;;;;;;;1.87;1.77;;;18.50;99.90;;;;;;489751;243;28811;-71
2022/08/20 04:02:07;;;;;;;1.93;1.83;;;18.50;99.90;;;;;;489672;243;28752;-69
2022/08/20 04:04:09;;;;;;;2.03;1.93;;;18.40;99.90;;;;;;489728;243;28788;-70
2022/08/20 04:06:10;;;;;;;2.23;2.00;;;18.40;99.90;;;;;;489660;243;28708;-69
2022/08/20 04:08:11;;;;;;;1.80;1.70;;;18.40;99.90;;;;;;489764;243;28760;-70
2022/08/20 04:10:12;;;;;;;2.73;1.80;;;18.40;99.90;;;;;;489758;243;28791;-71
2022/08/20 04:12:14;;;;;;;2.00;1.90;;;18.30;99.90;;;;;;489703;243;28763;-69
2022/08/20 04:14:15;;;;;;;2.20;2.10;;;18.30;99.90;;;;;;489739;243;29209;-70
2022/08/20 04:16:16;;;;;;;1.97;1.87;;;18.30;99.90;;;;;;489631;243;30015;-69
2022/08/20 04:18:23;;;;;;;2.00;1.90;;;18.30;99.90;;;;;;489730;243;29270;-70
2022/08/20 04:20:22;;;;;;;2.00;1.90;;;18.30;99.90;;;;;;489608;243;28788;-69
2022/08/20 04:22:23;;;;;;;2.10;2.00;;;18.30;99.90;;;;;;489680;243;28775;-72
2022/08/20 04:24:26;;;;;;;1.90;1.80;;;18.30;99.90;;;;;;489742;243;28677;-70
2022/08/20 04:26:25;;;;;;;2.20;2.10;;;18.20;99.90;;;;;;489568;243;28717;-70
2022/08/20 04:28:27;;;;;;;2.07;1.97;;;18.20;99.90;;;;;;489745;243;29335;-69
2022/08/20 04:30:28;;;;;;;1.90;1.80;;;18.20;99.90;;;;;;489758;243;29133;-70
2022/08/20 04:32:29;;;;;;;1.80;1.70;;;18.20;99.90;;;;;;489717;243;29260;-71
2022/08/20 04:34:30;;;;;;;2.13;2.03;;;18.20;99.90;;;;;;489754;243;28736;-70
2022/08/20 04:36:31;;;;;;;2.13;2.03;;;18.20;99.90;;;;;;489655;243;28719;-70
2022/08/20 04:38:33;;;;;;;2.47;2.27;;;18.20;99.90;;;;;;489730;243;28776;-70
2022/08/20 04:40:52;;;;;;;2.37;2.17;;;18.20;99.90;;;;;;489728;243;28661;-69
2022/08/20 04:42:53;;;;;;;3.03;2.77;;;18.20;99.90;;;;;;489709;243;28811;-71
2022/08/20 04:44:55;;;;;;;1.90;1.80;;;18.20;99.90;;;;;;489731;243;28670;-69
2022/08/20 04:46:56;;;;;;;1.93;1.83;;;18.30;99.90;;;;;;489660;243;29078;-71
2022/08/20 04:48:57;;;;;;;2.30;1.83;;;18.30;99.90;;;;;;489761;243;28720;-70
2022/08/20 04:51:00;;;;;;;2.13;2.03;;;18.30;99.90;;;;;;489619;243;28673;-70
2022/08/20 04:53:00;;;;;;;2.80;2.60;;;18.30;99.90;;;;;;489651;243;28721;-70
2022/08/20 04:55:01;;;;;;;2.00;1.90;;;18.30;99.90;;;;;;489741;243;28693;-69
2022/08/20 04:57:02;;;;;;;2.50;2.30;;;18.30;99.90;;;;;;489641;243;28720;-70
2022/08/20 04:59:03;;;;;;;2.20;2.00;;;18.30;99.90;;;;;;489717;243;28702;-73
2022/08/20 05:01:05;;;;;;;2.60;2.40;;;18.30;99.90;;;;;;489751;243;29147;-70
2022/08/20 05:03:06;;;;;;;2.20;2.10;;;18.40;99.90;;;;;;489734;243;29176;-72
2022/08/20 05:05:07;;;;;;;2.53;2.10;;;18.40;99.90;;;;;;489747;243;29241;-70
2022/08/20 05:07:09;;;;;;;2.70;2.50;;;18.50;99.90;;;;;;489656;243;28704;-70
2022/08/20 05:09:10;;;;;;;2.50;2.30;;;18.50;99.90;;;;;;489706;243;28709;-70
2022/08/20 05:11:11;;;;;;;2.50;2.30;;;18.50;99.90;;;;;;489766;243;28682;-70
2022/08/20 05:13:12;;;;;;;2.10;2.00;;;18.60;99.90;;;;;;489717;243;28713;-72
2022/08/20 05:15:13;;;;;;;2.60;2.27;;;18.50;99.90;;;;;;489727;243;28696;-69
2022/08/20 05:17:15;;;;;;;2.57;2.20;;;18.60;99.90;;;;;;489656;243;28728;-70
2022/08/20 05:19:16;;;;;;;2.30;2.20;;;18.50;99.90;;;;;;489760;243;28715;-73
2022/08/20 05:21:17;;;;;;;2.23;2.07;;;18.50;99.90;;;;;;489773;243;28684;-70
2022/08/20 05:23:18;;;;;;;2.30;2.20;;;18.50;99.90;;;;;;489719;243;28793;-71
2022/08/20 05:25:20;;;;;;;2.30;2.20;;;18.50;99.90;;;;;;489754;243;29174;-72
2022/08/20 05:27:25;;;;;;;2.13;1.97;;;18.50;99.90;;;;;;489673;243;29192;-71
2022/08/20 05:29:23;;;;;;;2.93;2.73;;;18.50;99.90;;;;;;489446;243;29278;-73
2022/08/20 05:31:23;;;;;;;2.90;2.70;;;18.60;99.90;;;;;;489755;243;28682;-69
2022/08/20 05:33:25;;;;;;;2.70;2.50;;;18.50;99.90;;;;;;489715;243;28781;-71
2022/08/20 05:35:26;;;;;;;2.53;2.37;;;18.50;99.90;;;;;;489748;243;29022;-70
2022/08/20 05:37:28;;;;;;;2.50;2.40;;;18.50;99.90;;;;;;489659;242;28737;-70
2022/08/20 05:39:28;;;;;;;2.30;2.20;;;18.60;99.90;;;;;;489662;243;28721;-73
2022/08/20 05:41:30;;;;;;;2.37;2.20;;;18.60;99.90;;;;;;489758;243;28784;-69
2022/08/20 05:43:32;;;;;;;2.73;2.53;;;18.60;99.90;;;;;;489683;243;29192;-70
2022/08/20 05:45:32;;;;;;;2.30;2.20;;;18.60;99.90;;;;;;489732;243;29134;-70
2022/08/20 05:47:33;;;;;;;2.40;2.07;;;18.50;99.90;;;;;;489720;243;29272;-70
2022/08/20 05:49:35;;;;;;;3.30;2.47;;;18.60;99.90;;;;;;489745;243;29199;-77
2022/08/20 05:51:36;;;;;;;2.73;2.53;;;18.60;99.90;;;;;;489744;243;29148;-70
2022/08/20 05:53:37;;;;;;;2.40;2.27;;;18.50;99.90;;;;;;489715;243;28796;-70
2022/08/20 05:55:38;;;;;;;2.43;2.30;;;18.50;99.90;;;;;;489760;243;28674;-70
2022/08/20 05:57:40;;;;;;;2.73;2.47;;;18.60;99.90;;;;;;489700;243;28775;-70
2022/08/20 05:59:41;;;;;;;2.50;2.30;;;18.60;99.90;;;;;;489758;243;28722;-73
2022/08/20 06:01:42;;;;;;;3.00;2.80;;;18.60;99.90;;;;;;489779;243;28696;-70
2022/08/20 06:06:03;;;;;;;2.10;2.00;;;18.70;99.90;;;;;;489733;243;29272;-73
2022/08/20 06:08:05;;;;;;;2.30;2.10;;;18.50;99.90;;;;;;489759;243;29256;-70
2022/08/20 06:10:06;;;;;;;2.10;2.00;;;18.50;99.90;;;;;;489719;243;29232;-71
2022/08/20 06:12:08;;;;;;;2.57;2.37;;;18.50;99.90;;;;;;489762;243;29995;-70
2022/08/20 06:14:08;;;;;;;2.40;2.00;;;18.40;99.90;;;;;;489717;243;28674;-70
2022/08/20 06:16:10;;;;;;;2.67;2.57;;;18.50;99.90;;;;;;489712;243;28811;-70
2022/08/20 06:18:11;;;;;;;2.40;2.20;;;18.40;99.90;;;;;;489648;243;28702;-70
2022/08/20 06:20:12;;;;;;;2.23;2.10;;;18.40;99.90;;;;;;489604;243;28704;-72
2022/08/20 06:22:13;;;;;;;2.13;2.00;;;18.50;99.90;;;;;;489691;243;28764;-71
2022/08/20 06:24:15;;;;;;;2.20;2.10;;;18.50;99.90;;;;;;489654;243;28668;-71
2022/08/20 06:26:16;;;;;;;2.33;2.20;;;18.50;99.90;;;;;;489537;243;28741;-71
2022/08/20 06:28:17;;;;;;;2.13;2.03;;;18.50;99.90;;;;;;489660;243;28795;-70
2022/08/20 06:30:18;;;;;;;2.30;2.10;;;18.40;99.90;;;;;;489701;243;29204;-71
2022/08/20 06:32:20;;;;;;;2.07;1.97;;;18.40;99.90;;;;;;489761;243;29188;-73
2022/08/20 06:34:21;;;;;;;3.53;2.10;;;18.40;99.90;;;;;;489704;243;29203;-70
2022/08/20 06:36:23;;;;;;;2.57;2.10;;;18.40;99.90;;;;;;489698;243;29309;-70
2022/08/20 06:38:24;;;;;;;2.20;2.10;;;18.40;99.90;;;;;;489700;243;28788;-70
2022/08/20 06:40:25;;;;;;;2.70;2.17;;;18.40;99.90;;;;;;489574;243;28788;-70
2022/08/20 06:42:26;;;;;;;2.43;2.07;;;18.30;99.90;;;;;;489775;243;28792;-73
2022/08/20 06:44:27;;;;;;;1.80;1.70;;;18.30;99.90;;;;;;489751;243;28727;-70
2022/08/20 06:46:28;;;;;;;2.00;1.90;;;18.30;99.90;;;;;;489716;243;28709;-73
2022/08/20 06:48:30;;;;;;;1.97;1.87;;;18.30;99.90;;;;;;489786;243;28686;-70
2022/08/20 06:50:31;;;;;;;1.93;1.83;;;18.40;99.90;;;;;;489742;243;28823;-70
2022/08/20 06:52:32;;;;;;;1.83;1.73;;;18.40;99.90;;;;;;489789;243;28807;-73
2022/08/20 06:54:33;;;;;;;1.87;1.77;;;18.50;99.90;;;;;;489756;243;28761;-70
2022/08/20 06:56:35;;;;;;;1.73;1.60;;;18.30;99.90;;;;;;489690;243;29283;-70
2022/08/20 06:58:36;;;;;;;1.73;1.63;;;18.30;99.90;;;;;;489762;243;29271;-70
2022/08/20 07:00:37;;;;;;;1.60;1.50;;;18.30;99.90;;;;;;489701;243;29282;-70
2022/08/20 07:02:38;;;;;;;1.80;1.70;;;18.40;99.90;;;;;;489770;243;28725;-73
2022/08/20 07:04:40;;;;;;;1.60;1.50;;;18.50;99.90;;;;;;489708;243;28692;-70
2022/08/20 07:06:41;;;;;;;2.17;2.07;;;18.60;99.90;;;;;;489674;243;28711;-72
2022/08/20 07:08:42;;;;;;;1.90;1.80;;;18.60;99.90;;;;;;489764;243;28674;-70
2022/08/20 07:10:43;;;;;;;1.73;1.63;;;18.70;99.90;;;;;;489721;243;28724;-70
2022/08/20 07:12:45;;;;;;;1.43;1.43;;;18.80;99.90;;;;;;489752;243;29152;-70
2022/08/20 07:14:46;;;;;;;1.73;1.63;;;18.90;99.90;;;;;;489746;243;28726;-73
2022/08/20 07:16:48;;;;;;;1.60;1.50;;;19.00;99.90;;;;;;489706;243;28717;-70
2022/08/20 07:18:48;;;;;;;1.80;1.70;;;19.10;99.90;;;;;;489742;243;28761;-69
2022/08/20 07:20:50;;;;;;;1.40;1.40;;;19.10;99.90;;;;;;489699;243;29195;-70
2022/08/20 07:22:51;;;;;;;1.67;1.57;;;19.20;99.90;;;;;;489760;243;29275;-70
2022/08/20 07:24:52;;;;;;;1.40;1.40;;;19.30;99.90;;;;;;489761;243;29228;-70
2022/08/20 07:26:53;;;;;;;1.50;1.40;;;19.40;99.90;;;;;;489663;243;29194;-72
2022/08/20 07:28:55;;;;;;;1.33;1.30;;;19.40;99.90;;;;;;489679;243;28749;-70
2022/08/20 07:33:16;;;;;;;2.00;1.90;;;19.30;99.90;;;;;;489747;243;28699;-71
2022/08/20 07:35:17;;;;;;;1.93;1.73;;;19.50;99.90;;;;;;489712;243;29180;-70
2022/08/20 07:37:19;;;;;;;1.60;1.50;;;19.50;99.90;;;;;;489718;243;29200;-71
2022/08/20 07:39:20;;;;;;;1.30;1.30;;;19.60;99.90;;;;;;489717;241;29187;-73
2022/08/20 07:41:21;;;;;;;1.50;1.40;;;19.80;99.90;;;;;;489695;242;28798;-70
2022/08/20 07:43:25;;;;;;;1.57;1.47;;;19.90;99.90;;;;;;489754;243;28742;-70
2022/08/20 07:45:26;;;;;;;1.70;1.60;;;20.00;99.90;;;;;;489711;243;28815;-70
2022/08/20 07:47:27;;;;;;;1.53;1.47;;;19.90;99.90;;;;;;489674;243;28782;-70
2022/08/20 07:49:29;;;;;;;1.30;1.30;;;19.80;99.90;;;;;;489753;243;29154;-70
2022/08/20 07:51:30;;;;;;;1.73;1.63;;;19.80;99.90;;;;;;489718;243;29267;-71
2022/08/20 07:53:32;;;;;;;1.70;1.60;;;19.70;99.90;;;;;;489717;243;29143;-70
2022/08/20 07:55:32;;;;;;;1.50;1.40;;;19.60;99.90;;;;;;489532;243;28750;-71
2022/08/20 07:57:34;;;;;;;1.40;1.40;;;19.50;99.90;;;;;;488258;243;28672;-70
2022/08/20 07:59:35;;;;;;;1.50;1.40;;;19.60;99.90;;;;;;487367;241;28695;-71
2022/08/20 08:01:36;;;;;;;1.57;1.47;;;19.70;99.90;;;;;;488428;241;28809;-73
2022/08/20 08:03:38;;;;;;;1.37;1.27;;;19.80;99.90;;;;;;486352;238;28950;-70
2022/08/20 08:05:39;;;;;;;1.50;1.40;;;19.70;99.90;;;;;;490820;241;28809;-71
2022/08/20 08:07:40;;;;;;;1.57;1.53;;;19.70;99.90;;;;;;491903;241;28744;-70
2022/08/20 08:09:42;;;;;;;1.50;1.50;;;19.60;99.90;;;;;;486189;238;28841;-70
2022/08/20 08:11:42;;;;;;;1.30;1.30;;;19.70;99.90;;;;;;484534;243;28780;-72
2022/08/20 08:13:44;;;;;;;1.50;1.40;;;19.90;99.90;;;;;;489088;241;29183;-70
2022/08/20 08:15:45;;;;;;;1.43;1.40;;;20.10;99.90;;;;;;491161;240;29439;-71
2022/08/20 08:17:47;;;;;;;1.60;1.50;;;20.30;99.90;;;;;;493999;238;29239;-70
2022/08/20 08:19:48;;;;;;;1.67;1.50;;;20.30;99.90;;;;;;499285;238;29130;-71
2022/08/20 08:21:49;;;;;;;1.77;1.40;;;20.30;99.90;;;;;;499315;238;28719;-72
2022/08/20 08:23:52;;;;;;;1.60;1.60;;;20.30;99.90;;;;;;499246;238;28773;-70
2022/08/20 08:25:51;;;;;;;1.60;1.50;;;20.40;99.90;;;;;;501611;237;28789;-71
2022/08/20 08:27:52;;;;;;;1.93;1.30;;;20.40;99.90;;;;;;501582;237;28708;-75
2022/08/20 08:29:54;;;;;;;2.50;1.63;;;20.30;99.90;;;;;;501674;237;28721;-70
2022/08/20 08:31:55;;;;;;;1.60;1.20;;;20.20;99.90;;;;;;501744;237;28789;-71
2022/08/20 08:33:57;;;;;;;2.73;1.53;;;20.20;99.90;;;;;;501660;237;28721;-71
2022/08/20 08:35:57;;;;;;;2.83;1.40;;;20.20;99.90;;;;;;496946;237;28766;-70
2022/08/20 08:38:01;;;;;;;1.17;1.17;;;20.30;99.90;;;;;;491781;237;29404;-70
2022/08/20 08:40:00;;;;;;;1.30;1.30;;;20.20;99.90;;;;;;497062;236;30078;-70
2022/08/20 08:42:03;;;;;;;2.60;1.40;;;20.30;99.90;;;;;;494123;237;29333;-72
2022/08/20 08:44:03;;;;;;;2.57;1.60;;;20.40;99.90;;;;;;493960;236;29241;-70
2022/08/20 08:46:04;;;;;;;1.50;1.40;;;20.50;99.90;;;;;;490173;240;28842;-76
2022/08/20 08:48:05;;;;;;;1.10;1.10;;;20.80;99.90;;;;;;487911;239;28842;-70
2022/08/20 08:50:06;;;;;;;1.33;1.23;;;20.60;99.90;;;;;;478496;248;28878;-70
2022/08/20 08:52:07;;;;;;;1.60;1.50;;;20.60;99.90;;;;;;491359;242;28739;-71
2022/08/20 08:54:09;;;;;;;1.50;1.40;;;20.50;99.90;;;;;;491346;242;28760;-70
2022/08/20 08:56:10;;;;;;;1.30;1.30;;;20.40;99.90;;;;;;491257;242;28782;-70
2022/08/20 08:58:11;;;;;;;3.67;2.07;;;20.50;99.90;;;;;;491375;242;28695;-73
2022/08/20 09:00:14;;;;;;;1.20;1.20;;;20.50;99.90;;;;;;491338;242;28771;-71
2022/08/20 09:02:14;;;;;;;1.87;1.53;;;20.50;99.90;;;;;;491248;242;28707;-71
2022/08/20 09:04:15;;;;;;;1.30;1.20;;;20.40;99.90;;;;;;491359;242;29146;-70
2022/08/20 09:06:17;;;;;;;1.23;1.23;;;20.50;99.90;;;;;;495056;237;29271;-70
2022/08/20 09:08:18;;;;;;;1.37;1.37;;;20.40;99.90;;;;;;491420;237;29197;-70
2022/08/20 09:10:19;;;;;;;1.60;1.50;;;20.30;99.90;;;;;;500781;237;28672;-70
2022/08/20 09:12:20;;;;;;;1.50;1.40;;;20.30;99.90;;;;;;500113;238;28548;-73
2022/08/20 09:14:23;;;;;;;1.60;1.50;;;20.30;99.90;;;;;;500160;238;28673;-70
2022/08/20 09:16:23;;;;;;;1.80;1.70;;;20.20;99.90;;;;;;499916;238;28654;-71
2022/08/20 09:18:24;;;;;;;1.63;1.60;;;20.20;99.90;;;;;;500142;238;28737;-72
2022/08/20 09:20:25;;;;;;;1.77;1.67;;;20.20;99.90;;;;;;500123;238;29055;-71
2022/08/20 09:22:26;;;;;;;1.73;1.63;;;20.20;99.90;;;;;;500108;238;29176;-70
2022/08/20 09:24:28;;;;;;;1.70;1.60;;;20.20;99.90;;;;;;500156;238;29098;-70
2022/08/20 09:26:29;;;;;;;1.97;1.87;;;20.30;99.90;;;;;;500077;238;29035;-70
2022/08/20 09:28:30;;;;;;;1.87;1.77;;;20.30;99.90;;;;;;500060;238;28537;-73
2022/08/20 09:30:31;;;;;;;1.90;1.80;;;20.40;99.90;;;;;;500134;238;28583;-70
2022/08/20 09:32:33;;;;;;;1.63;1.53;;;20.50;99.90;;;;;;500043;238;28646;-71
2022/08/20 09:34:34;;;;;;;1.50;1.50;;;20.40;99.90;;;;;;500147;238;28604;-70
2022/08/20 09:36:35;;;;;;;1.40;1.30;;;20.50;99.90;;;;;;492591;238;28819;-71
2022/08/20 09:38:36;;;;;;;1.60;1.50;;;20.50;99.90;;;;;;496695;238;28669;-74
2022/08/20 09:40:38;;;;;;;1.23;1.23;;;20.30;99.90;;;;;;498657;237;28880;-70
2022/08/20 09:42:39;;;;;;;1.57;1.47;;;20.40;99.90;;;;;;493050;240;28733;-70
2022/08/20 09:44:40;;;;;;;1.50;1.40;;;20.40;99.90;;;;;;496098;237;29183;-69
2022/08/20 09:46:41;;;;;;;1.60;1.50;;;20.60;99.90;;;;;;492249;237;29159;-70
2022/08/20 09:48:43;;;;;;;1.70;1.60;;;20.50;99.90;;;;;;484248;244;29340;-73
2022/08/20 09:50:44;;;;;;;1.60;1.50;;;20.50;99.90;;;;;;497200;237;29347;-70
2022/08/20 09:52:45;;;;;;;4.10;1.77;;;20.40;99.90;;;;;;492365;237;28877;-70
2022/08/20 09:54:46;;;;;;;1.67;1.57;;;20.50;99.90;;;;;;494527;237;28798;-70
2022/08/20 09:56:48;;;;;;;1.53;1.43;;;20.60;99.90;;;;;;499669;238;28606;-70
2022/08/20 09:58:49;;;;;;;3.20;1.80;;;20.70;99.90;;;;;;499740;238;28586;-72
2022/08/20 10:00:50;;;;;;;1.53;1.43;;;20.80;99.90;;;;;;499688;238;28492;-70
2022/08/20 10:02:51;;;;;;;1.70;1.60;;;20.70;99.90;;;;;;499696;238;28555;-70
2022/08/20 10:04:53;;;;;;;1.60;1.60;;;20.60;99.90;;;;;;499652;238;28601;-70
2022/08/20 10:06:54;;;;;;;1.40;1.40;;;20.80;99.90;;;;;;494005;236;28726;-71
2022/08/20 10:08:55;;;;;;;2.07;1.70;;;20.90;99.90;;;;;;493711;241;28779;-71
2022/08/20 10:10:56;;;;;;;1.70;1.60;;;21.00;99.90;;;;;;493730;241;29292;-71
2022/08/20 10:12:58;;;;;;;1.70;1.60;;;21.10;99.90;;;;;;493495;241;29315;-70
2022/08/20 10:14:59;;;;;;;1.50;1.40;;;21.10;99.90;;;;;;493740;241;28857;-70
2022/08/20 10:17:00;;;;;;;1.27;1.27;;;21.00;99.90;;;;;;493681;241;28726;-70
2022/08/20 10:19:01;;;;;;;2.20;1.70;;;21.10;99.90;;;;;;493551;241;28729;-71
2022/08/20 10:21:03;;;;;;;1.40;1.30;;;21.30;99.90;;;;;;493735;241;28785;-70
2022/08/20 10:23:04;;;;;;;1.50;1.40;;;21.00;99.90;;;;;;493707;241;28857;-71
2022/08/20 10:25:05;;;;;;;1.57;1.47;;;20.90;99.90;;;;;;493713;241;29110;-70
2022/08/20 10:27:08;;;;;;;1.57;1.40;;;20.90;99.90;;;;;;493645;241;29092;-70
2022/08/20 10:29:10;;;;;;;1.70;1.47;;;20.90;99.90;;;;;;493751;241;28743;-73
2022/08/20 10:31:11;;;;;;;1.47;1.20;;;21.00;99.90;;;;;;493740;241;28820;-70
2022/08/20 10:33:12;;;;;;;4.43;1.70;;;21.10;99.90;;;;;;493762;241;29317;-70
2022/08/20 10:35:13;;;;;;;2.00;1.30;;;21.10;99.90;;;;;;493771;241;29184;-69
2022/08/20 10:37:15;;;;;;;1.40;1.30;;;21.40;99.90;;;;;;493483;241;29313;-71
2022/08/20 10:39:16;;;;;;;1.50;1.40;;;21.50;99.90;;;;;;493464;241;28824;-73